Terminal Aerodrome Forecast
Issued by NWS Rapid City, SD

Home | Current Version | Previous Version | Text Only | Print | Product List | Glossary On
Versions: 1 2 3 4 5 6 7 8 9 10 11 12 13 14 15 16 17 18
000
FTUS43 KUNR 310800 AAC
TAFRAP
TAF AMD
KRAP 310846Z 3109/0106 15011KT 2SM BR OVC002
     FM311400 15015KT P6SM OVC005
     FM311600 16024G34KT P6SM BKN200=

USA.gov is the U.S. government's official web portal to all federal, state and local government web resources and services.